Time;durP1;ratioP1;P1;durP2;ratioP2;P2;SDS_P1;SDS_P2;PMS_P1;PMS_P2;Temp;Humidity;BMP_temperature;BMP_pressure;BME280_temperature;BME280_humidity;BME280_pressure;Samples;Min_cycle;Max_cycle;Signal;HPM_P1;HPM_P2
2023/12/07 00:01:06;;;;;;;11.27;6.88;;;;;;;2.68;96.52;101872.66;6339449;22;20078;-88
2023/12/07 00:03:31;;;;;;;11.05;7.40;;;;;;;2.75;96.92;101894.81;6312060;22;20082;-87
2023/12/07 00:05:57;;;;;;;12.93;8.30;;;;;;;2.71;97.84;101875.47;6339144;22;20034;-88
2023/12/07 00:08:22;;;;;;;11.65;8.00;;;;;;;2.82;98.33;101881.28;6285317;22;20015;-88
2023/12/07 00:10:47;;;;;;;11.07;7.53;;;;;;;2.80;97.21;101874.19;6311282;22;20011;-88
2023/12/07 00:13:13;;;;;;;11.65;7.15;;;;;;;3.04;97.03;101891.31;6285753;22;20029;-88
2023/12/07 00:15:38;;;;;;;10.60;7.03;;;;;;;2.98;96.46;101877.88;6285860;22;20003;-88
2023/12/07 00:18:04;;;;;;;11.73;6.90;;;;;;;3.00;95.50;101891.94;6285370;22;20082;-88
2023/12/07 00:20:30;;;;;;;11.45;7.15;;;;;;;2.96;97.02;101895.19;6311437;22;20013;-88
2023/12/07 00:22:55;;;;;;;10.10;7.07;;;;;;;3.03;97.42;101884.25;6338907;22;20013;-87
2023/12/07 00:25:21;;;;;;;10.32;6.50;;;;;;;3.07;95.37;101887.94;6285901;22;20013;-87
2023/12/07 00:27:47;;;;;;;9.25;6.53;;;;;;;2.94;94.15;101870.69;6339346;22;20002;-88
2023/12/07 00:30:13;;;;;;;10.25;6.90;;;;;;;2.86;94.65;101885.00;6311523;22;20014;-88
2023/12/07 00:32:40;;;;;;;9.90;7.10;;;;;;;2.43;95.55;101825.06;6338903;22;20421;-87
2023/12/07 00:35:06;;;;;;;9.85;7.10;;;;;;;2.58;96.00;101885.09;6311840;22;20009;-87
2023/12/07 00:37:33;;;;;;;13.02;8.30;;;;;;;2.40;97.55;101869.22;6339018;22;20286;-87
2023/12/07 00:39:58;;;;;;;15.93;9.18;;;;;;;2.51;97.90;101889.03;6339125;22;20032;-87
2023/12/07 00:42:23;;;;;;;13.38;9.02;;;;;;;2.56;99.11;101892.81;6285877;22;20010;-87
2023/12/07 00:44:49;;;;;;;15.05;9.15;;;;;;;2.57;98.76;101885.88;6311191;22;20070;-88
2023/12/07 00:47:14;;;;;;;13.90;9.05;;;;;;;2.65;98.92;101893.34;6339040;22;20011;-87
2023/12/07 00:49:42;;;;;;;14.93;9.73;;;;;;;2.72;99.10;101898.13;6338718;22;20007;-87
2023/12/07 00:52:08;;;;;;;13.02;9.50;;;;;;;2.79;99.14;101888.06;6312143;22;20007;-87
2023/12/07 00:54:34;;;;;;;15.23;9.38;;;;;;;2.75;98.61;101876.53;6311576;22;20002;-88
2023/12/07 00:56:59;;;;;;;14.60;9.20;;;;;;;2.86;98.68;101883.28;6338680;22;20015;-87
2023/12/07 00:59:24;;;;;;;13.45;9.05;;;;;;;2.83;97.07;101864.84;6338611;22;20059;-88
2023/12/07 01:01:50;;;;;;;11.20;7.65;;;;;;;2.97;96.17;101889.13;6285749;22;20014;-87
2023/12/07 01:04:16;;;;;;;11.23;7.90;;;;;;;2.86;96.27;101858.88;6288698;22;20090;-87
2023/12/07 01:06:42;;;;;;;11.73;7.75;;;;;;;2.93;94.94;101869.78;6314633;22;20324;-87
2023/12/07 01:09:09;;;;;;;10.43;6.93;;;;;;;2.98;94.26;101890.94;6342226;22;20010;-86
2023/12/07 01:11:34;;;;;;;10.65;7.60;;;;;;;3.05;95.26;101900.03;6314565;22;20003;-87
2023/12/07 01:14:00;;;;;;;11.35;7.60;;;;;;;3.06;94.48;101899.22;6314781;22;20003;-87
2023/12/07 01:16:25;;;;;;;10.40;7.05;;;;;;;3.03;93.70;101902.53;6314368;22;20479;-87
2023/12/07 01:18:50;;;;;;;12.68;8.30;;;;;;;2.97;93.82;101907.41;6342172;22;20059;-87
2023/12/07 01:21:16;;;;;;;13.30;8.73;;;;;;;2.81;94.78;101889.03;6342230;22;20042;-87
2023/12/07 01:23:42;;;;;;;12.52;8.38;;;;;;;2.92;94.45;101903.63;6314699;22;20069;-86
2023/12/07 01:26:07;;;;;;;11.65;7.65;;;;;;;2.59;94.32;101860.78;6342040;22;20007;-87
2023/12/07 01:28:33;;;;;;;13.68;8.20;;;;;;;2.75;94.38;101900.03;6314140;22;20075;-88
2023/12/07 01:30:59;;;;;;;14.30;8.10;;;;;;;2.59;93.84;101906.03;6314506;22;20007;-87
2023/12/07 01:33:25;;;;;;;16.55;9.50;;;;;;;2.35;95.19;101883.69;6314437;22;20387;-88
2023/12/07 01:35:50;;;;;;;14.98;9.48;;;;;;;2.50;96.25;101916.81;6288799;22;20140;-87
2023/12/07 01:38:15;;;;;;;17.48;9.45;;;;;;;2.40;95.93;101904.03;6313880;22;20026;-87
2023/12/07 01:40:41;;;;;;;13.27;9.00;;;;;;;2.51;96.96;101912.50;6314075;22;20017;-87
2023/12/07 01:43:06;;;;;;;11.70;7.68;;;;;;;2.62;96.24;101913.16;6314522;22;20030;-87
2023/12/07 01:45:32;;;;;;;10.40;7.43;;;;;;;2.72;95.90;101905.06;6314131;22;20133;-87
2023/12/07 01:47:58;;;;;;;9.38;7.32;;;;;;;2.81;94.98;101905.59;6341622;22;20010;-87
2023/12/07 01:50:24;;;;;;;10.85;7.90;;;;;;;2.76;94.44;101891.38;6314366;22;20320;-86
2023/12/07 01:52:55;;;;;;;12.73;7.78;;;;;;;2.86;93.90;101901.53;6314646;22;20015;-88
2023/12/07 01:55:22;;;;;;;13.48;6.90;;;;;;;2.67;92.42;101891.75;6314464;22;20003;-87
2023/12/07 01:57:49;;;;;;;10.10;7.05;;;;;;;2.57;92.33;101897.25;6314599;22;20009;-87
2023/12/07 02:00:15;;;;;;;14.95;8.60;;;;;;;2.31;93.41;101898.25;6314067;22;20002;-87
2023/12/07 02:02:41;;;;;;;11.80;7.93;;;;;;;2.23;94.32;101897.81;6341550;22;20078;-87
2023/12/07 02:05:07;;;;;;;12.05;8.70;;;;;;;2.20;95.50;101900.22;6341408;22;20030;-88
2023/12/07 02:07:34;;;;;;;11.90;8.15;;;;;;;2.17;95.78;101892.19;6288029;22;20015;-88
2023/12/07 02:09:59;;;;;;;12.05;8.55;;;;;;;2.26;96.19;101894.47;6341837;22;20514;-87
2023/12/07 02:12:25;;;;;;;11.23;7.88;;;;;;;2.28;95.95;101881.53;6314443;22;20015;-87
2023/12/07 02:14:53;;;;;;;12.65;8.65;;;;;;;2.53;95.61;101902.16;6340331;22;20012;-86
2023/12/07 02:17:30;;;;;;;11.18;8.18;;;;;;;2.48;94.00;101887.16;6340188;22;20011;-87
2023/12/07 02:20:05;;;;;;;13.63;8.80;;;;;;;2.57;94.61;101901.53;6312633;22;20005;-86
2023/12/07 02:22:49;;;;;;;17.20;9.68;;;;;;;2.58;95.25;101903.34;6340174;22;20425;-86
2023/12/07 02:25:18;;;;;;;13.18;8.85;;;;;;;2.46;94.53;101903.50;6312471;22;20409;-86
2023/12/07 02:27:47;;;;;;;15.38;9.48;;;;;;;2.44;95.76;101913.84;6340147;22;20003;-86
2023/12/07 02:30:14;;;;;;;12.43;8.60;;;;;;;2.42;95.66;101919.78;6313224;22;20017;-86
2023/12/07 02:32:41;;;;;;;15.77;9.32;;;;;;;2.38;95.98;101925.63;6339881;22;20056;-86
2023/12/07 02:35:07;;;;;;;14.48;9.43;;;;;;;2.02;96.02;101865.19;6339605;22;20486;-86
2023/12/07 02:37:55;;;;;;;14.73;9.85;;;;;;;2.36;96.99;101919.41;6312406;22;20003;-87
2023/12/07 02:40:24;;;;;;;15.55;8.70;;;;;;;2.33;96.47;101924.44;6339874;22;19999;-87
2023/12/07 02:42:52;;;;;;;25.05;10.77;;;;;;;2.18;97.54;101893.09;6339799;22;20011;-86
2023/12/07 02:45:17;;;;;;;21.42;10.57;;;;;;;2.29;97.73;101922.44;6312528;22;20007;-87
2023/12/07 02:47:44;;;;;;;29.20;10.43;;;;;;;2.26;99.43;101912.72;6339977;22;20081;-87
2023/12/07 02:50:11;;;;;;;44.17;12.07;;;;;;;2.30;99.92;101909.50;6339932;22;20003;-87
2023/12/07 02:52:36;;;;;;;42.92;11.15;;;;;;;2.20;99.95;101901.91;6339939;22;20010;-87
2023/12/07 02:55:02;;;;;;;68.95;12.35;;;;;;;2.13;100.00;101913.66;6339983;22;20421;-87
2023/12/07 02:57:29;;;;;;;63.75;12.23;;;;;;;1.86;100.00;101885.91;6339561;22;20034;-87
2023/12/07 02:59:55;;;;;;;52.13;12.38;;;;;;;1.90;100.00;101906.13;6337738;22;20329;-87
2023/12/07 03:02:20;;;;;;;32.63;11.57;;;;;;;1.93;100.00;101917.66;6339547;22;20007;-87
2023/12/07 03:04:45;;;;;;;58.25;11.65;;;;;;;1.90;100.00;101903.53;6340597;22;19998;-87
2023/12/07 03:07:11;;;;;;;53.38;11.55;;;;;;;1.85;100.00;101912.78;6307005;22;20018;-86
2023/12/07 03:09:36;;;;;;;38.80;11.07;;;;;;;1.65;100.00;101883.75;6333314;22;20015;-87
2023/12/07 03:12:02;;;;;;;89.13;11.82;;;;;;;1.60;100.00;101910.31;6308954;22;20483;-87
2023/12/07 03:14:27;;;;;;;86.22;11.73;;;;;;;1.45;100.00;101920.63;6309089;22;20003;-88
2023/12/07 03:16:52;;;;;;;48.75;11.38;;;;;;;1.33;100.00;101915.56;6307364;22;20017;-87
2023/12/07 03:19:18;;;;;;;47.08;11.93;;;;;;;1.26;100.00;101908.13;6307131;22;20007;-87
2023/12/07 03:21:43;;;;;;;72.70;12.15;;;;;;;1.25;100.00;101914.16;6307010;22;20433;-87
2023/12/07 03:24:09;;;;;;;84.00;12.52;;;;;;;1.10;100.00;101906.22;6281409;22;20053;-86
2023/12/07 03:26:35;;;;;;;92.65;12.25;;;;;;;1.04;100.00;101899.72;6307124;22;20016;-86
2023/12/07 03:29:00;;;;;;;92.60;12.45;;;;;;;0.99;100.00;101896.81;6306662;22;20007;-86
2023/12/07 03:31:26;;;;;;;72.65;11.70;;;;;;;1.07;100.00;101925.94;6308872;22;20061;-87
2023/12/07 03:33:52;;;;;;;91.38;12.13;;;;;;;1.07;100.00;101920.72;6307580;22;20003;-87
2023/12/07 03:36:17;;;;;;;84.30;11.80;;;;;;;0.99;100.00;101917.66;6308661;22;20007;-87
2023/12/07 03:38:43;;;;;;;72.38;11.48;;;;;;;0.90;100.00;101910.13;6308235;22;20422;-86
2023/12/07 03:41:08;;;;;;;52.90;12.38;;;;;;;0.96;100.00;101920.94;6308904;22;20087;-87
2023/12/07 03:43:34;;;;;;;85.63;12.32;;;;;;;0.99;100.00;101922.84;6308675;22;20007;-87
2023/12/07 03:45:59;;;;;;;67.55;11.15;;;;;;;0.99;100.00;101926.34;6307166;22;20015;-87
2023/12/07 03:48:25;;;;;;;140.48;12.70;;;;;;;0.99;100.00;101935.84;6308870;22;20022;-87
2023/12/07 03:50:50;;;;;;;72.38;11.05;;;;;;;0.91;100.00;101906.72;6308514;22;20007;-86
2023/12/07 03:53:15;;;;;;;53.22;10.68;;;;;;;0.97;100.00;101924.44;6307101;22;20034;-86
2023/12/07 03:55:41;;;;;;;75.63;11.90;;;;;;;0.96;100.00;101943.44;6281070;22;20004;-87
2023/12/07 03:58:07;;;;;;;106.55;12.65;;;;;;;0.92;100.00;101946.66;6307880;22;20441;-87
2023/12/07 04:00:32;;;;;;;102.15;12.80;;;;;;;0.83;100.00;101933.91;6307390;22;20383;-86
2023/12/07 04:02:58;;;;;;;46.33;12.10;;;;;;;1.00;100.00;101951.56;6306364;22;20007;-87
2023/12/07 04:05:24;;;;;;;107.00;12.63;;;;;;;1.01;100.00;101929.03;6307611;22;20003;-86
2023/12/07 04:07:49;;;;;;;54.40;12.50;;;;;;;1.06;100.00;101944.97;6305723;22;20022;-87
2023/12/07 04:10:15;;;;;;;105.82;13.20;;;;;;;0.67;100.00;101874.75;6280507;22;20003;-87
2023/12/07 04:12:40;;;;;;;66.63;12.75;;;;;;;0.95;100.00;101933.84;6308000;22;20010;-86
2023/12/07 04:15:06;;;;;;;67.78;12.65;;;;;;;0.91;100.00;101927.53;6306329;22;20354;-86
2023/12/07 04:17:31;;;;;;;76.18;13.80;;;;;;;0.91;100.00;101922.34;6307820;22;20018;-86
2023/12/07 04:19:57;;;;;;;83.55;13.90;;;;;;;1.00;100.00;101942.84;6305990;22;20426;-87
2023/12/07 04:22:23;;;;;;;97.82;14.02;;;;;;;0.98;100.00;101962.66;6306176;22;20094;-86
2023/12/07 04:24:48;;;;;;;72.45;13.60;;;;;;;0.76;100.00;101921.28;6307953;22;20440;-87
2023/12/07 04:27:13;;;;;;;131.98;16.80;;;;;;;0.82;100.00;101949.44;6306260;22;20007;-87
2023/12/07 04:29:39;;;;;;;104.88;14.95;;;;;;;0.81;100.00;101965.81;6307218;22;20039;-86
2023/12/07 04:32:04;;;;;;;65.68;13.60;;;;;;;0.70;100.00;101942.59;6280284;22;20007;-86
2023/12/07 04:34:30;;;;;;;78.97;12.90;;;;;;;0.80;100.00;101951.03;6307390;22;20061;-87
2023/12/07 04:36:55;;;;;;;84.13;13.73;;;;;;;0.80;100.00;101966.63;6307515;22;20066;-87
2023/12/07 04:39:21;;;;;;;102.00;15.95;;;;;;;0.59;100.00;101937.44;6307162;22;20007;-87
2023/12/07 04:41:46;;;;;;;69.35;15.30;;;;;;;0.61;100.00;101954.97;6307613;22;20432;-87
2023/12/07 04:44:11;;;;;;;50.50;13.43;;;;;;;0.63;100.00;101963.78;6306300;22;20410;-87
2023/12/07 04:46:37;;;;;;;88.20;14.63;;;;;;;0.68;100.00;101972.78;6307237;22;20365;-87
2023/12/07 04:49:02;;;;;;;101.10;14.35;;;;;;;0.61;100.00;101962.78;6305989;22;20011;-87
2023/12/07 04:51:28;;;;;;;63.40;11.35;;;;;;;0.60;100.00;101965.25;6305767;22;20426;-87
2023/12/07 04:53:53;;;;;;;74.25;12.85;;;;;;;0.48;100.00;101962.75;6307555;22;20010;-87
2023/12/07 04:56:18;;;;;;;115.07;15.18;;;;;;;0.39;100.00;101957.81;6305999;22;20044;-87
2023/12/07 04:58:44;;;;;;;112.05;13.68;;;;;;;0.17;100.00;101929.41;6307228;22;20314;-87
2023/12/07 05:01:09;;;;;;;69.60;10.88;;;;;;;0.23;100.00;101936.72;6305975;22;20014;-88
2023/12/07 05:03:35;;;;;;;62.28;10.52;;;;;;;0.25;100.00;101942.91;6280115;22;20014;-87
2023/12/07 05:06:00;;;;;;;125.55;12.60;;;;;;;0.24;100.00;101922.94;6307539;22;20373;-87
2023/12/07 05:08:25;;;;;;;108.07;12.35;;;;;;;0.38;100.00;101947.28;6305568;22;20033;-87
2023/12/07 05:10:51;;;;;;;131.27;12.25;;;;;;;0.36;100.00;101954.09;6305958;22;20003;-87
2023/12/07 05:13:17;;;;;;;63.38;10.95;;;;;;;0.36;100.00;101949.78;6305793;22;20505;-87
2023/12/07 05:15:42;;;;;;;132.20;12.60;;;;;;;0.17;100.00;101911.22;6307491;22;20030;-87
2023/12/07 05:18:07;;;;;;;75.82;10.80;;;;;;;0.37;100.00;101942.88;6307967;22;20014;-87
2023/12/07 05:20:34;;;;;;;52.60;10.38;;;;;;;0.36;100.00;101941.09;6306007;22;20015;-87
2023/12/07 05:22:59;;;;;;;64.97;9.60;;;;;;;0.31;100.00;101919.06;6307470;22;20010;-88
2023/12/07 05:25:24;;;;;;;39.50;9.35;;;;;;;0.24;100.00;101915.13;6305750;22;20330;-88
2023/12/07 05:27:50;;;;;;;41.35;8.98;;;;;;;0.39;100.00;101933.50;6307367;22;20094;-86
2023/12/07 05:30:15;;;;;;;34.10;9.60;;;;;;;0.39;100.00;101936.09;6307221;22;20010;-87
2023/12/07 05:32:41;;;;;;;51.90;12.52;;;;;;;0.38;100.00;101934.28;6306139;22;20003;-87
2023/12/07 05:35:07;;;;;;;34.65;9.52;;;;;;;0.40;100.00;101927.50;6307623;22;20008;-87
2023/12/07 05:37:32;;;;;;;28.70;9.25;;;;;;;0.55;100.00;101932.84;6307352;22;20011;-86
2023/12/07 05:39:57;;;;;;;59.30;9.77;;;;;;;0.45;100.00;101913.13;6307324;22;20413;-87
2023/12/07 05:42:23;;;;;;;48.78;9.25;;;;;;;0.56;100.00;101926.84;6307507;22;20520;-87
2023/12/07 05:44:48;;;;;;;41.35;9.57;;;;;;;0.47;100.00;101906.31;6307245;22;20013;-88
2023/12/07 05:47:14;;;;;;;47.88;8.70;;;;;;;0.54;100.00;101908.53;6306996;22;20048;-87
2023/12/07 05:49:42;;;;;;;46.72;9.15;;;;;;;0.50;100.00;101904.81;6307884;22;20329;-88
2023/12/07 05:52:08;;;;;;;44.30;9.88;;;;;;;0.60;100.00;101915.84;6309422;22;20010;-87
2023/12/07 05:54:34;;;;;;;30.70;8.73;;;;;;;0.59;100.00;101922.75;6307783;22;20314;-87
2023/12/07 05:56:59;;;;;;;83.05;11.57;;;;;;;0.39;100.00;101899.72;6308891;22;20430;-88
2023/12/07 05:59:25;;;;;;;29.05;8.38;;;;;;;0.32;100.00;101892.28;6308901;22;20456;-88
2023/12/07 06:01:53;;;;;;;46.72;9.68;;;;;;;0.50;100.00;101919.53;6307343;22;20085;-88
2023/12/07 06:04:19;;;;;;;58.50;9.00;;;;;;;0.40;100.00;101892.00;6307401;22;20041;-87
2023/12/07 06:06:46;;;;;;;29.38;8.80;;;;;;;0.57;100.00;101918.25;6312000;22;20019;-87
2023/12/07 06:09:11;;;;;;;38.03;9.43;;;;;;;0.57;100.00;101915.66;6287392;22;20007;-86
2023/12/07 06:11:40;;;;;;;32.78;9.20;;;;;;;0.60;100.00;101929.78;6340053;22;20383;-87
2023/12/07 06:14:06;;;;;;;57.80;9.43;;;;;;;0.62;100.00;101927.28;6340324;22;20003;-87
2023/12/07 06:16:31;;;;;;;40.15;9.52;;;;;;;0.48;100.00;101903.81;6286977;22;20432;-87
2023/12/07 06:18:56;;;;;;;56.28;8.60;;;;;;;0.28;100.00;101864.28;6312462;22;20003;-86
2023/12/07 06:21:22;;;;;;;33.17;8.90;;;;;;;0.45;100.00;101895.81;6312526;22;20014;-87
2023/12/07 06:23:47;;;;;;;68.43;9.82;;;;;;;0.65;100.00;101928.38;6312754;22;20002;-87
2023/12/07 06:26:13;;;;;;;35.47;9.65;;;;;;;0.63;100.00;101919.56;6312660;22;20379;-88
2023/12/07 06:28:38;;;;;;;59.40;9.80;;;;;;;0.70;100.00;101926.09;6340014;22;20090;-87
2023/12/07 06:31:08;;;;;;;64.07;9.43;;;;;;;0.70;100.00;101929.59;6286695;22;20090;-87
2023/12/07 06:33:34;;;;;;;79.50;9.55;;;;;;;0.65;100.00;101938.78;6340187;22;20038;-87
2023/12/07 06:36:00;;;;;;;66.80;9.93;;;;;;;0.62;100.00;101933.38;6339628;22;20003;-87
2023/12/07 06:38:25;;;;;;;37.38;9.32;;;;;;;0.57;100.00;101932.16;6339972;22;20274;-88
2023/12/07 06:40:51;;;;;;;52.80;9.60;;;;;;;0.47;100.00;101907.22;6312305;22;20009;-87
2023/12/07 06:43:16;;;;;;;34.67;9.20;;;;;;;0.62;100.00;101920.38;6339936;22;20426;-87
2023/12/07 06:45:41;;;;;;;49.03;8.93;;;;;;;0.49;100.00;101889.13;6312546;22;20372;-87
2023/12/07 06:48:07;;;;;;;55.35;8.27;;;;;;;0.67;100.00;101913.75;6312761;22;20023;-87
2023/12/07 06:50:32;;;;;;;79.82;8.20;;;;;;;0.40;100.00;101873.81;6339753;22;20030;-87
2023/12/07 06:52:57;;;;;;;54.80;8.82;;;;;;;0.66;100.00;101916.28;6312652;22;20086;-89
2023/12/07 06:55:23;;;;;;;51.10;7.88;;;;;;;0.61;100.00;101912.47;6340029;22;20010;-87
2023/12/07 06:57:48;;;;;;;85.28;10.10;;;;;;;0.43;100.00;101883.53;6312334;22;20065;-86
2023/12/07 07:00:14;;;;;;;106.88;9.65;;;;;;;0.57;100.00;101900.94;6339161;22;20360;-87
2023/12/07 07:02:39;;;;;;;55.83;9.07;;;;;;;0.57;100.00;101890.56;6311818;22;20007;-87
2023/12/07 07:05:05;;;;;;;64.68;8.68;;;;;;;0.36;100.00;101860.50;6339495;22;20084;-90
2023/12/07 07:07:31;;;;;;;93.45;9.57;;;;;;;0.57;100.00;101887.94;6339304;22;20010;-86
2023/12/07 07:09:57;;;;;;;70.30;9.00;;;;;;;0.41;100.00;101859.09;6340174;22;20007;-86
2023/12/07 07:12:23;;;;;;;41.42;9.02;;;;;;;0.43;100.00;101863.63;6312562;22;20017;-87
2023/12/07 07:14:48;;;;;;;96.68;9.93;;;;;;;0.56;100.00;101914.75;6313429;22;20077;-88
2023/12/07 07:17:15;;;;;;;79.15;8.75;;;;;;;0.42;100.00;101898.19;6340035;22;20007;-86
2023/12/07 07:19:41;;;;;;;61.20;8.93;;;;;;;0.43;100.00;101900.03;6312385;22;20484;-88
2023/12/07 07:22:06;;;;;;;92.70;9.30;;;;;;;0.51;100.00;101908.31;6312082;22;20086;-88
2023/12/07 07:24:31;;;;;;;51.60;8.02;;;;;;;0.37;100.00;101881.38;6339677;22;20328;-88
2023/12/07 07:26:57;;;;;;;47.47;8.95;;;;;;;0.41;100.00;101888.59;6286355;22;20011;-87
2023/12/07 07:29:22;;;;;;;74.40;9.48;;;;;;;0.56;100.00;101927.75;6339430;22;20086;-87
2023/12/07 07:31:48;;;;;;;80.25;10.48;;;;;;;0.57;100.00;101933.88;6285952;22;20014;-88
2023/12/07 07:34:13;;;;;;;70.78;9.93;;;;;;;0.55;100.00;101932.84;6339242;22;20010;-87
2023/12/07 07:36:38;;;;;;;111.13;11.10;;;;;;;0.46;100.00;101927.91;6339466;22;20064;-87
2023/12/07 07:39:07;;;;;;;55.97;10.50;;;;;;;0.49;100.00;101933.34;6286186;22;20410;-88
2023/12/07 07:41:33;;;;;;;43.30;11.10;;;;;;;0.34;100.00;101914.97;6339031;22;20451;-88
2023/12/07 07:43:59;;;;;;;40.15;10.30;;;;;;;0.29;100.00;101916.34;6311553;22;20003;-87
2023/12/07 07:46:24;;;;;;;40.40;9.85;;;;;;;0.37;100.00;101906.47;6318781;22;20044;-88
2023/12/07 07:48:50;;;;;;;41.13;9.82;;;;;;;0.38;100.00;101896.19;6313284;22;20100;-88
2023/12/07 07:51:16;;;;;;;47.45;11.32;;;;;;;0.54;100.00;101931.03;6311576;22;20010;-88
2023/12/07 07:53:41;;;;;;;30.55;10.90;;;;;;;0.10;100.00;101850.91;6342049;22;20444;-91
2023/12/07 07:56:07;;;;;;;65.00;11.18;;;;;;;0.58;100.00;101925.25;6339681;22;20060;-90
2023/12/07 07:58:33;;;;;;;32.05;10.40;;;;;;;0.57;100.00;101923.47;6312164;22;20011;-88
2023/12/07 08:01:12;;;;;;;45.30;11.68;;;;;;;0.62;100.00;101916.88;6285593;22;20085;-90
2023/12/07 08:03:38;;;;;;;44.60;11.55;;;;;;;0.66;100.00;101924.06;6312371;22;20006;-91
2023/12/07 08:06:04;;;;;;;33.67;12.45;;;;;;;0.61;100.00;101917.66;6259818;22;20013;-90
2023/12/07 08:08:29;;;;;;;43.10;13.27;;;;;;;0.21;100.00;101847.34;6316833;22;20311;-89
2023/12/07 08:10:54;;;;;;;33.55;11.95;;;;;;;0.37;100.00;101859.69;6339822;22;20018;-91
2023/12/07 08:13:20;;;;;;;45.00;12.30;;;;;;;0.54;100.00;101884.22;6338191;22;20341;-89
2023/12/07 08:15:45;;;;;;;29.55;11.73;;;;;;;0.70;100.00;101913.09;6311328;22;20022;-93
2023/12/07 08:18:11;;;;;;;85.65;12.23;;;;;;;0.63;100.00;101884.84;6338940;22;20361;-90
2023/12/07 08:20:37;;;;;;;121.88;13.13;;;;;;;0.68;100.00;101886.06;6266822;22;20017;-91
2023/12/07 08:23:02;;;;;;;100.95;11.93;;;;;;;0.88;100.00;101923.81;6285357;22;20063;-90
2023/12/07 08:25:28;;;;;;;71.00;14.00;;;;;;;0.85;100.00;101924.50;6311745;22;20360;-90
2023/12/07 08:27:53;;;;;;;47.08;12.65;;;;;;;0.78;100.00;101921.41;6338755;22;20038;-90
2023/12/07 08:30:19;;;;;;;54.92;12.40;;;;;;;0.77;100.00;101917.88;6310893;22;20006;-89
2023/12/07 08:32:45;;;;;;;36.75;12.98;;;;;;;0.73;100.00;101911.59;6311284;22;20007;-90
2023/12/07 08:35:10;;;;;;;56.72;15.07;;;;;;;0.72;100.00;101914.06;6312169;22;20010;-92
2023/12/07 08:37:37;;;;;;;50.58;13.75;;;;;;;0.71;100.00;101927.88;6311001;22;20010;-91
2023/12/07 08:40:03;;;;;;;62.90;13.35;;;;;;;0.66;100.00;101924.06;6310690;22;20014;-90
2023/12/07 08:42:31;;;;;;;40.97;13.57;;;;;;;0.67;100.00;101918.97;6310623;22;20011;-91
2023/12/07 08:44:57;;;;;;;32.97;13.75;;;;;;;0.77;100.00;101923.09;6338767;22;20003;-91
2023/12/07 08:47:23;;;;;;;36.00;11.43;;;;;;;0.68;100.00;101897.34;6310804;22;20433;-91
2023/12/07 08:49:51;;;;;;;30.10;12.60;;;;;;;0.77;100.00;101915.28;6338641;22;20430;-91
2023/12/07 08:52:17;;;;;;;27.48;12.43;;;;;;;0.48;100.00;101853.53;6295325;22;20061;-90
2023/12/07 08:54:43;;;;;;;40.53;16.15;;;;;;;0.85;100.00;101918.41;6285230;22;20015;-92
2023/12/07 08:57:08;;;;;;;32.70;13.38;;;;;;;0.86;100.00;101925.44;6338639;22;20322;-90
2023/12/07 08:59:36;;;;;;;29.75;11.85;;;;;;;0.85;100.00;101934.91;6310303;22;20003;-92
2023/12/07 09:02:02;;;;;;;29.33;15.18;;;;;;;0.74;100.00;101907.28;6311460;22;20007;-92
2023/12/07 09:04:27;;;;;;;35.65;14.02;;;;;;;0.86;100.00;101933.25;6285129;22;20014;-93
2023/12/07 09:07:00;;;;;;;34.13;13.02;;;;;;;0.75;100.00;101899.59;6310544;22;20015;-93
2023/12/07 09:09:25;;;;;;;33.70;15.23;;;;;;;0.86;100.00;101920.22;6311322;22;20095;-93
2023/12/07 09:11:51;;;;;;;32.28;13.95;;;;;;;0.88;100.00;101916.00;6284976;22;20014;-93
2023/12/07 09:14:16;;;;;;;28.83;12.45;;;;;;;0.90;100.00;101904.94;6338939;22;20052;-92
2023/12/07 09:16:45;;;;;;;32.83;14.15;;;;;;;0.83;100.00;101887.09;6311198;22;20041;-92
2023/12/07 09:19:14;;;;;;;30.35;14.05;;;;;;;0.85;100.00;101895.00;6338880;22;20011;-92
2023/12/07 09:21:43;;;;;;;28.17;12.68;;;;;;;0.91;100.00;101908.44;6311160;22;20011;-93
2023/12/07 09:24:11;;;;;;;27.55;12.52;;;;;;;0.95;100.00;101905.22;6339433;22;20002;-92
2023/12/07 09:26:37;;;;;;;31.33;13.77;;;;;;;0.95;100.00;101906.13;6340546;22;20007;-92
2023/12/07 09:29:02;;;;;;;31.20;13.77;;;;;;;1.00;100.00;101915.13;6287023;22;20033;-92
2023/12/07 09:31:28;;;;;;;32.42;14.27;;;;;;;0.92;100.00;101903.31;6339477;22;20030;-92
2023/12/07 09:33:53;;;;;;;35.65;15.77;;;;;;;1.00;100.00;101914.22;6286884;22;19998;-91
2023/12/07 09:36:21;;;;;;;36.65;15.32;;;;;;;0.82;100.00;101877.50;6287340;22;20029;-90
2023/12/07 09:38:46;;;;;;;34.47;14.45;;;;;;;0.84;100.00;101880.19;6288675;22;20007;-91
2023/12/07 09:41:11;;;;;;;31.50;13.43;;;;;;;0.89;100.00;101876.19;6312858;22;20069;-91
2023/12/07 09:43:37;;;;;;;37.15;15.70;;;;;;;1.07;100.00;101900.84;6261695;22;20007;-90
2023/12/07 09:46:04;;;;;;;34.33;14.43;;;;;;;1.03;100.00;101882.28;6261315;22;20420;-92
2023/12/07 09:48:29;;;;;;;34.92;15.35;;;;;;;0.99;100.00;101873.41;6286833;22;20019;-93
2023/12/07 09:50:56;;;;;;;34.55;13.52;;;;;;;1.16;100.00;101883.22;6287906;22;20086;-92
2023/12/07 09:53:22;;;;;;;29.85;13.93;;;;;;;1.10;100.00;101864.56;6312406;22;19999;-91
2023/12/07 09:55:47;;;;;;;30.58;13.70;;;;;;;1.14;100.00;101852.66;6286973;22;20007;-91
2023/12/07 09:58:13;;;;;;;31.58;14.38;;;;;;;1.10;100.00;101840.25;6312300;22;20056;-93
2023/12/07 10:00:41;;;;;;;30.73;14.10;;;;;;;1.39;100.00;101876.88;6341759;22;19999;-92
2023/12/07 10:03:09;;;;;;;27.65;12.35;;;;;;;1.39;100.00;101870.78;6312767;22;20033;-92
2023/12/07 10:05:53;;;;;;;29.20;14.25;;;;;;;1.37;100.00;101849.84;6312383;22;20085;-91
2023/12/07 10:08:32;;;;;;;29.83;14.20;;;;;;;1.54;100.00;101853.50;6305896;22;20102;-91
2023/12/07 10:11:04;;;;;;;28.40;13.15;;;;;;;1.62;100.00;101852.28;6306423;22;20338;-91
2023/12/07 10:13:31;;;;;;;33.83;13.38;;;;;;;1.67;100.00;101844.75;6308572;22;20007;-91
2023/12/07 10:16:11;;;;;;;24.50;12.82;;;;;;;1.67;100.00;101824.84;6308759;22;19999;-94
2023/12/07 10:18:36;;;;;;;24.00;12.68;;;;;;;1.60;100.00;101787.88;6308401;22;20058;-92
2023/12/07 10:21:03;;;;;;;24.17;12.82;;;;;;;1.94;100.00;101806.50;6307450;22;20413;-92
2023/12/07 10:23:28;;;;;;;28.75;13.65;;;;;;;2.12;100.00;101804.97;6309585;22;20030;-92
2023/12/07 10:25:54;;;;;;;24.70;13.25;;;;;;;2.40;100.00;101822.25;6281442;22;20003;-94
2023/12/07 10:28:21;;;;;;;27.58;12.95;;;;;;;2.14;100.00;101753.84;6307385;22;20003;-93
2023/12/07 10:30:46;;;;;;;25.25;13.43;;;;;;;2.60;100.00;101813.91;6309847;22;20082;-91
2023/12/07 10:33:14;;;;;;;23.30;13.02;;;;;;;2.61;100.00;101794.84;6308696;22;20003;-93
2023/12/07 10:35:43;;;;;;;24.55;13.13;;;;;;;2.78;100.00;101789.69;6306667;22;20011;-96
2023/12/07 10:38:15;;;;;;;25.42;13.40;;;;;;;2.80;100.00;101775.03;6308316;22;20003;-92
2023/12/07 10:40:41;;;;;;;24.05;13.20;;;;;;;3.07;100.00;101793.94;6282363;22;20082;-91
2023/12/07 10:43:10;;;;;;;24.20;13.13;;;;;;;2.79;100.00;101748.03;6306912;22;20084;-94
2023/12/07 10:45:39;;;;;;;22.95;12.95;;;;;;;3.08;100.00;101786.19;6310730;22;20011;-96
2023/12/07 10:48:08;;;;;;;22.92;13.05;;;;;;;3.20;100.00;101796.44;6313433;22;19991;-90
2023/12/07 10:50:41;;;;;;;23.40;12.95;;;;;;;3.05;100.00;101749.50;6282117;22;20337;-91
2023/12/07 10:53:39;;;;;;;22.17;12.73;;;;;;;3.39;100.00;101782.69;6307140;22;20434;-93
2023/12/07 10:56:08;;;;;;;25.23;13.20;;;;;;;3.32;100.00;101763.16;6306591;22;20010;-91
2023/12/07 10:58:35;;;;;;;23.02;14.02;;;;;;;3.28;100.00;101755.06;6307974;22;20007;-95
2023/12/07 11:01:02;;;;;;;22.63;13.75;;;;;;;3.22;100.00;101738.25;6308296;22;20471;-94
2023/12/07 11:03:29;;;;;;;21.30;13.00;;;;;;;3.16;100.00;101732.69;6308809;22;20003;-93
2023/12/07 11:05:55;;;;;;;25.38;13.52;;;;;;;3.49;100.00;101758.84;6307915;22;20010;-93
2023/12/07 11:08:23;;;;;;;22.02;12.88;;;;;;;3.71;100.00;101773.97;6308995;22;20019;-93
2023/12/07 11:11:21;;;;;;;24.92;12.88;;;;;;;3.87;100.00;101760.88;6307005;22;20003;-91